Time;durP1;ratioP1;P1;durP2;ratioP2;P2;SDS_P1;SDS_P2;PMS_P1;PMS_P2;Temp;Humidity;BMP_temperature;BMP_pressure;BME280_temperature;BME280_humidity;BME280_pressure;Samples;Min_cycle;Max_cycle;Signal;HPM_P1;HPM_P2
2022/03/08 00:01:34;;;;;;;7.67;6.90;;;;;;;5.93;47.36;102339.69;4999100;28;20410;-68
2022/03/08 00:04:00;;;;;;;10.23;7.70;;;;;;;6.02;48.62;102346.31;5001975;28;20471;-68
2022/03/08 00:06:26;;;;;;;8.63;7.63;;;;;;;5.99;47.87;102343.53;5002553;28;20179;-68
2022/03/08 00:08:51;;;;;;;9.43;7.90;;;;;;;6.16;46.57;102338.41;5002342;28;20226;-68
2022/03/08 00:11:17;;;;;;;10.20;7.80;;;;;;;6.00;46.72;102342.75;4994199;28;20432;-68
2022/03/08 00:13:44;;;;;;;8.33;7.33;;;;;;;5.70;47.39;102340.22;4982962;28;20263;-68
2022/03/08 00:16:09;;;;;;;9.40;7.47;;;;;;;5.95;47.93;102341.56;4982774;28;20435;-68
2022/03/08 00:18:38;;;;;;;13.27;7.20;;;;;;;5.96;47.72;102339.88;4986783;28;20466;-68
2022/03/08 00:21:05;;;;;;;7.70;6.80;;;;;;;5.80;46.98;102336.44;4981812;28;20434;-68
2022/03/08 00:23:30;;;;;;;11.53;7.93;;;;;;;5.95;47.22;102335.50;4982377;28;20412;-67
2022/03/08 00:25:56;;;;;;;9.20;8.23;;;;;;;5.86;46.99;102331.63;4982334;28;20435;-68
2022/03/08 00:28:21;;;;;;;12.77;8.27;;;;;;;5.69;47.62;102334.97;4982624;28;20175;-67
2022/03/08 00:30:46;;;;;;;9.07;7.63;;;;;;;6.05;47.57;102322.28;4982294;28;20215;-69
2022/03/08 00:33:12;;;;;;;12.27;7.57;;;;;;;6.01;47.14;102321.22;4982420;28;20510;-67
2022/03/08 00:35:37;;;;;;;13.50;7.60;;;;;;;5.91;47.19;102316.31;4982507;28;20586;-67
2022/03/08 00:38:03;;;;;;;8.50;7.20;;;;;;;5.91;46.96;102316.31;4981796;28;20191;-68
2022/03/08 00:40:28;;;;;;;8.03;6.70;;;;;;;5.72;48.19;102317.94;4982306;28;20219;-68
2022/03/08 00:42:53;;;;;;;9.37;7.30;;;;;;;5.09;48.36;102316.06;4982015;28;20177;-68
2022/03/08 00:45:19;;;;;;;10.37;7.80;;;;;;;5.45;48.51;102311.22;4982256;28;20184;-67
2022/03/08 00:47:45;;;;;;;8.60;7.43;;;;;;;5.54;48.27;102316.91;4982028;28;20183;-67
2022/03/08 00:50:14;;;;;;;10.00;7.37;;;;;;;5.42;48.57;102313.63;4982546;28;20411;-68
2022/03/08 00:52:40;;;;;;;8.10;7.27;;;;;;;5.45;48.42;102321.56;4982292;28;20286;-69
2022/03/08 00:55:06;;;;;;;10.27;7.57;;;;;;;5.55;48.28;102326.44;4981931;28;20463;-68
2022/03/08 00:57:31;;;;;;;9.40;7.50;;;;;;;5.40;50.29;102319.59;4982147;28;20184;-69
2022/03/08 00:59:57;;;;;;;9.30;7.10;;;;;;;5.29;48.09;102315.53;4981911;28;20442;-68
2022/03/08 01:02:22;;;;;;;8.50;7.30;;;;;;;5.27;48.35;102324.00;4981774;28;20203;-67
2022/03/08 01:04:47;;;;;;;9.83;7.20;;;;;;;5.52;48.83;102311.66;4982243;28;20168;-67
2022/03/08 01:07:14;;;;;;;10.13;6.87;;;;;;;5.40;47.20;102311.84;4983189;28;20184;-68
2022/03/08 01:09:39;;;;;;;7.97;7.17;;;;;;;5.29;47.79;102307.78;5001028;28;20183;-68
2022/03/08 01:12:05;;;;;;;8.63;7.73;;;;;;;5.46;47.59;102313.00;5001460;28;20442;-68
2022/03/08 01:14:30;;;;;;;10.23;8.07;;;;;;;5.21;48.42;102312.50;4999861;28;20262;-67
2022/03/08 01:16:56;;;;;;;8.67;7.53;;;;;;;5.47;47.36;102309.63;5000802;28;20176;-68
2022/03/08 01:19:24;;;;;;;9.80;7.50;;;;;;;5.57;48.04;102298.97;5001438;28;20729;-70
2022/03/08 01:21:49;;;;;;;8.60;7.40;;;;;;;5.20;48.49;102304.66;5001117;28;20175;-70
2022/03/08 01:24:15;;;;;;;9.03;8.13;;;;;;;4.95;49.25;102308.44;5001040;28;20840;-69
2022/03/08 01:26:40;;;;;;;8.87;7.30;;;;;;;5.11;48.84;102309.31;5001546;28;20176;-68
2022/03/08 01:29:06;;;;;;;8.27;7.50;;;;;;;5.37;48.02;102300.44;5000881;28;20275;-68
2022/03/08 01:31:31;;;;;;;8.70;7.80;;;;;;;5.57;47.08;102294.69;5000824;28;20182;-69
2022/03/08 01:33:57;;;;;;;9.73;8.40;;;;;;;5.17;48.50;102299.34;5001137;28;20217;-68
2022/03/08 01:36:24;;;;;;;8.47;7.57;;;;;;;5.49;47.12;102300.22;4984019;28;20202;-69
2022/03/08 01:38:49;;;;;;;8.23;7.43;;;;;;;5.01;48.02;102293.25;5000618;28;20249;-68
2022/03/08 01:41:14;;;;;;;8.97;8.03;;;;;;;4.76;48.47;102292.66;5001028;28;20805;-68
2022/03/08 01:43:40;;;;;;;9.80;8.60;;;;;;;5.17;49.04;102301.91;5000548;28;20175;-68
2022/03/08 01:46:05;;;;;;;9.23;7.90;;;;;;;5.18;50.00;102295.91;5000606;28;20223;-68
2022/03/08 01:48:30;;;;;;;9.30;8.30;;;;;;;4.96;48.91;102299.84;5000851;28;20171;-68
2022/03/08 01:50:56;;;;;;;10.43;8.40;;;;;;;5.25;48.46;102294.56;5000375;28;20172;-69
2022/03/08 01:53:22;;;;;;;10.50;9.00;;;;;;;5.18;48.77;102290.75;5000330;28;20199;-69
2022/03/08 01:55:49;;;;;;;10.53;9.43;;;;;;;5.03;49.86;102296.84;4983888;28;20433;-69
2022/03/08 01:58:15;;;;;;;8.83;7.93;;;;;;;5.08;49.77;102289.34;5000202;28;20179;-68
2022/03/08 02:00:40;;;;;;;9.37;7.80;;;;;;;4.68;48.88;102290.53;5000374;28;20415;-68
2022/03/08 02:03:05;;;;;;;9.87;8.10;;;;;;;4.77;50.27;102290.16;4983699;28;20172;-69
2022/03/08 02:05:31;;;;;;;10.60;7.23;;;;;;;4.68;49.70;102282.78;5000304;28;20256;-69
2022/03/08 02:07:56;;;;;;;9.53;8.10;;;;;;;4.38;50.01;102285.31;5000047;28;20330;-68
2022/03/08 02:10:22;;;;;;;9.50;7.70;;;;;;;4.52;49.94;102274.94;5000495;28;20176;-69
2022/03/08 02:12:47;;;;;;;10.47;8.90;;;;;;;4.81;50.29;102278.31;4999866;28;20446;-68
2022/03/08 02:15:38;;;;;;;8.90;7.60;;;;;;;4.50;50.31;102274.81;4999916;28;20294;-68
2022/03/08 02:18:04;;;;;;;9.83;8.23;;;;;;;4.67;49.61;102274.94;4995134;28;20541;-69
2022/03/08 02:20:30;;;;;;;11.40;10.20;;;;;;;4.71;49.91;102272.59;4982881;28;20478;-68
2022/03/08 02:22:56;;;;;;;10.70;8.47;;;;;;;4.78;49.16;102265.22;5000134;28;20183;-68
2022/03/08 02:25:22;;;;;;;10.63;7.47;;;;;;;4.79;49.56;102265.31;4982444;28;20471;-68
2022/03/08 02:27:51;;;;;;;8.60;7.80;;;;;;;4.36;51.22;102260.19;4999780;28;20460;-68
2022/03/08 02:30:17;;;;;;;14.67;8.00;;;;;;;4.42;50.98;102260.56;5000226;28;20457;-69
2022/03/08 02:32:43;;;;;;;9.87;8.80;;;;;;;4.71;49.62;102272.59;4999750;28;20522;-68
2022/03/08 02:35:11;;;;;;;9.47;8.53;;;;;;;4.38;51.00;102267.25;4999330;28;20454;-67
2022/03/08 02:37:56;;;;;;;10.87;8.20;;;;;;;4.64;50.66;102270.47;4999628;28;20430;-67
2022/03/08 02:40:31;;;;;;;10.07;9.00;;;;;;;4.33;50.88;102272.91;4999375;28;20793;-68
2022/03/08 02:42:56;;;;;;;11.33;8.73;;;;;;;4.21;51.25;102265.34;4999515;28;20830;-67
2022/03/08 02:45:22;;;;;;;10.47;9.37;;;;;;;4.22;52.48;102260.28;4999443;28;20419;-68
2022/03/08 02:47:47;;;;;;;11.07;9.67;;;;;;;4.42;51.82;102257.09;4999139;28;20176;-67
2022/03/08 02:50:13;;;;;;;11.03;9.67;;;;;;;4.35;51.14;102259.28;4999660;28;20263;-67
2022/03/08 02:52:41;;;;;;;11.50;9.97;;;;;;;4.51;50.95;102258.50;4998983;28;20210;-68
2022/03/08 02:55:07;;;;;;;10.90;9.70;;;;;;;3.83;51.73;102251.88;4999096;28;20492;-67
2022/03/08 02:57:33;;;;;;;11.07;9.50;;;;;;;4.26;51.12;102248.41;4999749;28;20647;-68
2022/03/08 02:59:58;;;;;;;10.87;9.37;;;;;;;3.86;52.54;102252.06;4998959;28;20433;-68
2022/03/08 03:02:23;;;;;;;10.07;8.90;;;;;;;3.72;52.89;102265.78;4998973;28;20187;-69
2022/03/08 03:04:49;;;;;;;10.20;9.10;;;;;;;4.18;52.78;102255.72;4999525;28;20437;-68
2022/03/08 03:07:14;;;;;;;13.23;10.63;;;;;;;4.04;52.19;102252.28;4998656;28;20545;-68
2022/03/08 03:09:40;;;;;;;11.33;9.60;;;;;;;3.92;52.19;102259.28;4998778;28;20176;-67
2022/03/08 03:12:06;;;;;;;10.70;9.00;;;;;;;3.82;52.34;102252.69;4999501;28;20258;-67
2022/03/08 03:14:31;;;;;;;9.53;8.53;;;;;;;4.08;52.46;102244.75;4998728;28;20207;-67
2022/03/08 03:16:56;;;;;;;10.70;9.50;;;;;;;4.11;52.00;102250.09;4998887;28;20423;-68
2022/03/08 03:19:22;;;;;;;10.57;8.90;;;;;;;3.99;52.87;102255.38;4998999;28;20203;-67
2022/03/08 03:21:47;;;;;;;11.07;9.90;;;;;;;4.00;52.71;102260.63;4999181;28;20191;-68
2022/03/08 03:24:12;;;;;;;10.20;8.77;;;;;;;3.94;52.68;102256.78;4998772;28;20190;-67
2022/03/08 03:26:38;;;;;;;10.13;9.13;;;;;;;3.89;54.36;102253.94;4981989;28;20262;-67
2022/03/08 03:29:03;;;;;;;10.40;8.50;;;;;;;3.79;53.31;102259.31;4998521;28;20180;-68
2022/03/08 03:31:28;;;;;;;10.83;9.73;;;;;;;3.92;52.93;102255.81;4965686;28;20179;-68
2022/03/08 03:33:54;;;;;;;9.90;8.87;;;;;;;4.04;52.65;102249.69;4999150;28;20294;-68
2022/03/08 03:36:19;;;;;;;9.67;8.53;;;;;;;3.57;53.25;102250.25;4998613;28;20187;-68
2022/03/08 03:38:44;;;;;;;11.03;9.67;;;;;;;3.88;53.86;102258.22;5001504;28;20262;-68
2022/03/08 03:41:10;;;;;;;13.00;8.63;;;;;;;4.12;53.13;102244.13;5003035;28;20262;-68
2022/03/08 03:43:36;;;;;;;9.83;7.70;;;;;;;4.12;53.04;102244.13;5002656;28;20434;-68
2022/03/08 03:46:01;;;;;;;9.50;7.83;;;;;;;4.05;52.90;102241.16;5002556;28;20415;-68
2022/03/08 03:48:27;;;;;;;11.07;8.07;;;;;;;4.29;53.17;102248.63;5003021;28;20399;-67
2022/03/08 03:50:52;;;;;;;10.53;8.50;;;;;;;4.33;53.17;102244.50;5002580;28;20441;-68
2022/03/08 03:53:17;;;;;;;12.37;8.00;;;;;;;3.93;54.03;102252.47;5002322;28;20196;-68
2022/03/08 03:55:42;;;;;;;10.60;8.60;;;;;;;3.99;55.13;102255.38;5002884;28;20179;-68
2022/03/08 03:58:08;;;;;;;10.30;8.67;;;;;;;4.19;54.51;102251.44;5002337;28;20174;-67
2022/03/08 04:00:33;;;;;;;11.70;8.67;;;;;;;3.89;54.83;102253.94;5002257;28;20458;-69
2022/03/08 04:02:58;;;;;;;10.00;7.93;;;;;;;4.27;53.59;102257.06;5002705;28;20581;-68
2022/03/08 04:05:24;;;;;;;10.70;9.17;;;;;;;3.94;55.07;102262.88;5002165;28;20462;-68
2022/03/08 04:07:49;;;;;;;12.23;9.70;;;;;;;4.05;54.91;102264.41;5002048;28;20227;-68
2022/03/08 04:10:16;;;;;;;10.00;8.90;;;;;;;4.10;54.53;102251.78;5002848;28;20266;-69
2022/03/08 04:12:42;;;;;;;11.97;8.50;;;;;;;4.10;54.16;102256.03;5002149;28;20188;-68
2022/03/08 04:15:08;;;;;;;10.93;8.53;;;;;;;3.97;55.51;102264.75;5002032;28;20715;-68
2022/03/08 04:17:34;;;;;;;10.87;9.13;;;;;;;3.93;55.36;102260.19;5002578;28;20452;-68
2022/03/08 04:19:59;;;;;;;12.00;9.17;;;;;;;4.18;54.71;102265.13;5002188;28;20434;-68
2022/03/08 04:22:25;;;;;;;9.57;8.00;;;;;;;3.94;55.57;102261.94;5002353;28;20231;-68
2022/03/08 04:24:50;;;;;;;9.17;8.27;;;;;;;3.86;55.47;102261.50;5002386;28;20255;-68
2022/03/08 04:27:15;;;;;;;9.90;8.70;;;;;;;3.75;55.39;102262.50;5002188;28;20530;-68
2022/03/08 04:29:40;;;;;;;10.43;8.23;;;;;;;3.93;55.14;102258.50;5001973;28;20256;-68
2022/03/08 04:32:06;;;;;;;11.00;8.20;;;;;;;3.92;55.22;102254.13;5002332;28;20186;-68
2022/03/08 04:34:31;;;;;;;9.43;8.23;;;;;;;3.96;55.67;102255.22;5002011;28;20203;-68
2022/03/08 04:36:57;;;;;;;9.50;8.53;;;;;;;3.77;55.38;102261.81;5002706;28;20192;-68
2022/03/08 04:39:22;;;;;;;10.20;8.50;;;;;;;3.95;54.33;102262.06;5002237;28;20180;-68
2022/03/08 04:41:48;;;;;;;9.13;8.07;;;;;;;3.81;54.21;102268.06;5001451;28;20201;-68
2022/03/08 04:44:13;;;;;;;10.63;8.70;;;;;;;3.87;55.30;102274.50;5001852;28;20183;-68
2022/03/08 04:46:39;;;;;;;12.10;9.13;;;;;;;3.70;55.51;102282.88;5002327;28;20176;-67
2022/03/08 04:49:05;;;;;;;12.83;8.47;;;;;;;3.58;54.98;102288.16;5001313;28;20274;-68
2022/03/08 04:51:30;;;;;;;10.03;8.93;;;;;;;3.93;55.52;102286.88;4984562;28;20462;-67
2022/03/08 04:53:55;;;;;;;9.97;8.60;;;;;;;3.75;54.81;102288.31;5001765;28;20274;-67
2022/03/08 04:56:21;;;;;;;10.13;8.87;;;;;;;3.82;54.83;102282.75;5001487;28;20508;-67
2022/03/08 04:58:46;;;;;;;11.03;9.07;;;;;;;3.88;55.56;102288.28;5001514;28;20407;-68
2022/03/08 05:01:12;;;;;;;13.40;9.20;;;;;;;3.99;54.92;102284.69;5001735;28;20538;-68
2022/03/08 05:03:38;;;;;;;11.20;8.97;;;;;;;3.99;55.26;102295.00;5001274;28;20175;-68
2022/03/08 05:06:04;;;;;;;10.60;8.87;;;;;;;3.83;56.02;102292.25;5001098;28;20458;-67
2022/03/08 05:08:30;;;;;;;11.10;9.60;;;;;;;3.69;57.58;102293.97;5001215;28;20533;-68
2022/03/08 05:10:55;;;;;;;12.67;10.37;;;;;;;3.85;56.41;102294.13;5001114;28;20419;-69
2022/03/08 05:13:20;;;;;;;12.20;10.30;;;;;;;3.78;56.62;102301.41;5001287;28;20227;-69
2022/03/08 05:15:48;;;;;;;11.90;10.60;;;;;;;3.41;57.59;102301.66;5001319;28;20232;-67
2022/03/08 05:18:14;;;;;;;13.70;10.63;;;;;;;3.67;57.37;102299.03;5000958;28;20258;-67
2022/03/08 05:20:39;;;;;;;12.57;10.90;;;;;;;3.56;58.68;102302.66;4984265;28;20435;-69
2022/03/08 05:23:05;;;;;;;13.00;10.57;;;;;;;3.32;58.83;102305.41;5001003;28;20172;-67
2022/03/08 05:25:30;;;;;;;12.27;9.97;;;;;;;3.36;58.90;102301.38;5000923;28;20172;-67
2022/03/08 05:27:56;;;;;;;12.87;10.27;;;;;;;3.67;58.75;102298.16;5001110;28;20199;-67
2022/03/08 05:30:21;;;;;;;15.77;11.00;;;;;;;2.95;58.87;102303.03;5000889;28;20545;-69
2022/03/08 05:32:46;;;;;;;17.00;11.57;;;;;;;3.42;58.48;102299.16;5000862;28;20159;-68
2022/03/08 05:35:12;;;;;;;18.03;11.83;;;;;;;3.16;59.23;102318.13;5001097;28;20196;-68
2022/03/08 05:37:37;;;;;;;15.30;11.77;;;;;;;3.12;60.91;102322.16;5000697;28;20262;-68
2022/03/08 05:40:08;;;;;;;15.23;12.03;;;;;;;3.15;60.68;102318.91;5000812;28;20231;-68
2022/03/08 05:42:34;;;;;;;15.23;10.80;;;;;;;3.36;59.75;102311.69;5001296;28;20487;-68
2022/03/08 05:44:59;;;;;;;12.50;11.20;;;;;;;3.18;59.79;102307.13;5000551;28;20415;-69
2022/03/08 05:47:24;;;;;;;16.50;11.20;;;;;;;3.44;59.34;102313.06;5000649;28;20179;-68
2022/03/08 05:49:50;;;;;;;11.50;10.13;;;;;;;3.32;60.23;102315.72;5000963;28;20187;-67
2022/03/08 05:52:15;;;;;;;14.90;11.10;;;;;;;3.52;58.58;102313.56;5000316;28;20226;-68
2022/03/08 05:54:40;;;;;;;15.00;11.30;;;;;;;3.41;58.71;102309.38;5000451;28;20207;-67
2022/03/08 05:57:06;;;;;;;15.90;11.20;;;;;;;3.51;59.06;102314.34;5001127;28;20171;-69
2022/03/08 05:59:31;;;;;;;12.23;10.87;;;;;;;3.76;58.97;102311.66;5000068;28;20215;-67
2022/03/08 06:01:56;;;;;;;14.30;10.83;;;;;;;3.70;57.90;102309.53;4982987;28;20516;-69
2022/03/08 06:04:22;;;;;;;13.33;10.30;;;;;;;3.20;58.17;102314.94;4983766;28;20167;-68
2022/03/08 06:06:47;;;;;;;14.47;10.23;;;;;;;3.75;58.00;102315.00;5000162;28;20596;-68
2022/03/08 06:09:13;;;;;;;10.90;9.60;;;;;;;3.75;57.79;102311.53;4999775;28;20212;-69
2022/03/08 06:11:38;;;;;;;19.97;11.40;;;;;;;3.56;58.70;102309.47;5000696;28;20452;-68
2022/03/08 06:14:03;;;;;;;14.00;11.03;;;;;;;3.79;59.08;102313.50;4999939;28;20330;-68
2022/03/08 06:16:29;;;;;;;15.17;12.40;;;;;;;3.45;59.10;102311.34;5000217;28;20179;-68
2022/03/08 06:18:56;;;;;;;15.97;11.50;;;;;;;3.10;60.38;102316.03;4999127;28;20199;-68
2022/03/08 06:21:21;;;;;;;16.40;10.60;;;;;;;3.39;60.53;102317.03;4999716;28;20210;-67
2022/03/08 06:23:47;;;;;;;19.10;12.20;;;;;;;3.46;60.98;102313.16;4999617;28;20434;-66
2022/03/08 06:26:12;;;;;;;17.00;11.03;;;;;;;3.72;59.80;102317.38;4982949;28;20445;-68
2022/03/08 06:28:37;;;;;;;16.13;11.33;;;;;;;3.66;59.33;102320.47;4999338;28;20190;-68
2022/03/08 06:31:03;;;;;;;18.63;11.03;;;;;;;3.63;59.14;102315.13;4999808;28;20474;-68
2022/03/08 06:33:28;;;;;;;21.13;11.60;;;;;;;3.68;59.08;102324.03;4983075;28;20259;-70
2022/03/08 06:35:53;;;;;;;13.23;11.30;;;;;;;3.49;58.53;102318.50;4999401;28;20183;-67
2022/03/08 06:38:19;;;;;;;20.77;12.03;;;;;;;4.02;57.69;102313.25;4999310;28;20195;-69
2022/03/08 06:40:44;;;;;;;12.80;10.77;;;;;;;3.95;57.77;102315.34;4999914;28;20424;-68
2022/03/08 06:43:09;;;;;;;15.73;10.63;;;;;;;3.83;57.19;102302.56;4999406;28;20179;-67
2022/03/08 06:45:34;;;;;;;13.43;11.03;;;;;;;3.87;57.23;102302.00;4999316;28;20172;-68
2022/03/08 06:48:00;;;;;;;23.43;12.30;;;;;;;3.71;57.04;102313.91;4999600;28;20190;-67
2022/03/08 06:50:25;;;;;;;20.60;11.20;;;;;;;3.77;56.77;102317.69;4999368;28;20553;-69
2022/03/08 06:52:50;;;;;;;14.40;10.27;;;;;;;3.65;56.67;102318.72;4998893;28;20187;-67
2022/03/08 06:55:16;;;;;;;15.57;10.70;;;;;;;3.91;56.01;102303.06;4999420;28;20192;-67
2022/03/08 06:57:41;;;;;;;25.07;11.17;;;;;;;4.10;55.60;102308.56;4998903;28;20194;-67
2022/03/08 07:00:07;;;;;;;16.10;9.80;;;;;;;4.11;54.14;102302.59;4999326;28;20171;-67
2022/03/08 07:02:33;;;;;;;22.47;10.37;;;;;;;4.19;54.56;102306.56;4999430;28;20568;-67
2022/03/08 07:04:58;;;;;;;14.70;10.30;;;;;;;6.40;50.06;102293.06;4982038;28;20419;-67
2022/03/08 07:07:23;;;;;;;14.47;9.93;;;;;;;8.34;43.51;102279.75;4998753;28;20212;-67
2022/03/08 07:09:49;;;;;;;13.03;8.60;;;;;;;9.74;39.59;102275.88;4999680;28;20187;-68
2022/03/08 07:12:14;;;;;;;10.80;9.30;;;;;;;10.19;38.92;102274.91;4998247;28;20172;-67
2022/03/08 07:14:40;;;;;;;9.93;8.93;;;;;;;11.28;35.41;102265.56;4998762;28;20203;-67
2022/03/08 07:17:05;;;;;;;11.40;8.80;;;;;;;11.59;35.09;102266.47;4999275;28;20204;-67
2022/03/08 07:19:30;;;;;;;12.93;9.20;;;;;;;11.93;34.16;102258.75;4998644;28;20210;-67
2022/03/08 07:21:56;;;;;;;9.50;8.60;;;;;;;12.01;33.29;102266.84;4998561;28;20193;-68
2022/03/08 07:24:21;;;;;;;14.57;8.57;;;;;;;11.42;34.14;102272.91;4999564;28;20202;-70
2022/03/08 07:26:46;;;;;;;17.43;10.40;;;;;;;11.98;33.93;102261.53;4998730;28;20245;-67
2022/03/08 07:29:12;;;;;;;11.73;8.90;;;;;;;13.55;31.46;102260.25;4998569;28;20176;-68
2022/03/08 07:31:37;;;;;;;9.63;8.73;;;;;;;12.92;32.07;102269.22;4999361;28;20227;-68
2022/03/08 07:34:02;;;;;;;13.90;9.30;;;;;;;11.89;33.69;102267.34;4998767;28;20207;-68
2022/03/08 07:36:28;;;;;;;14.20;8.80;;;;;;;11.83;33.34;102272.41;4998673;28;20238;-67
2022/03/08 07:38:53;;;;;;;9.67;8.70;;;;;;;12.64;32.25;102265.94;4999040;28;20160;-68
2022/03/08 07:41:18;;;;;;;9.00;7.83;;;;;;;13.27;31.31;102256.09;4998576;28;20271;-68
2022/03/08 07:43:44;;;;;;;10.60;8.70;;;;;;;13.98;30.33;102261.13;4998836;28;20198;-68
2022/03/08 07:46:09;;;;;;;9.50;8.33;;;;;;;14.82;29.19;102258.31;4999555;28;20170;-67
2022/03/08 07:48:36;;;;;;;8.53;7.60;;;;;;;14.41;29.06;102266.34;4998547;28;20246;-70
2022/03/08 07:51:01;;;;;;;9.93;7.17;;;;;;;16.11;26.52;102260.09;4998344;28;20168;-70
2022/03/08 07:53:26;;;;;;;14.27;7.60;;;;;;;14.64;27.92;102258.03;4999090;28;20451;-69
2022/03/08 07:55:52;;;;;;;10.93;7.20;;;;;;;14.40;28.54;102264.56;4998711;28;20460;-70
2022/03/08 07:58:17;;;;;;;6.90;6.30;;;;;;;15.17;26.74;102254.50;4998422;28;20171;-69
2022/03/08 08:00:43;;;;;;;11.00;7.17;;;;;;;14.20;28.63;102264.19;4999086;28;20169;-70
2022/03/08 08:03:08;;;;;;;8.47;7.50;;;;;;;15.64;26.89;102258.63;4999033;28;20242;-70
2022/03/08 08:05:35;;;;;;;8.07;7.30;;;;;;;15.90;27.13;102261.63;4998779;28;20488;-68
2022/03/08 08:08:02;;;;;;;17.50;15.03;;;;;;;15.33;27.58;102261.72;4998165;28;20215;-71
2022/03/08 08:10:27;;;;;;;14.97;8.03;;;;;;;15.49;27.48;102269.81;4998346;28;20425;-70
2022/03/08 08:12:52;;;;;;;8.77;7.97;;;;;;;14.70;28.07;102273.88;4998559;28;20418;-70
2022/03/08 08:15:18;;;;;;;9.77;7.80;;;;;;;15.37;27.02;102272.28;4998359;28;20448;-70
2022/03/08 08:17:43;;;;;;;8.20;6.73;;;;;;;15.65;27.06;102274.44;4998324;28;20175;-70
2022/03/08 08:20:09;;;;;;;10.23;7.60;;;;;;;15.84;26.98;102266.78;4998413;28;20238;-71
2022/03/08 08:22:34;;;;;;;9.40;7.20;;;;;;;16.22;26.04;102262.84;4998103;28;20177;-70
2022/03/08 08:24:59;;;;;;;10.17;7.60;;;;;;;16.33;25.92;102266.47;5001233;28;20431;-71
2022/03/08 08:27:25;;;;;;;7.00;6.30;;;;;;;15.56;26.87;102273.41;4990382;28;20216;-70
2022/03/08 08:29:50;;;;;;;7.90;7.10;;;;;;;15.88;26.29;102268.59;4991843;28;20172;-70
2022/03/08 08:32:15;;;;;;;7.00;6.30;;;;;;;16.56;25.98;102263.19;4989625;28;20191;-70
2022/03/08 08:34:40;;;;;;;8.43;7.57;;;;;;;16.24;26.32;102267.25;5002338;28;20191;-71
2022/03/08 08:37:07;;;;;;;7.63;6.80;;;;;;;16.53;25.29;102271.94;4989359;28;20184;-71
2022/03/08 08:39:32;;;;;;;11.53;7.40;;;;;;;16.67;25.33;102274.72;4965240;28;20168;-71
2022/03/08 08:41:58;;;;;;;7.67;6.80;;;;;;;16.65;25.84;102282.56;4982536;28;20422;-68
2022/03/08 08:44:26;;;;;;;8.77;7.07;;;;;;;15.04;26.97;102277.03;4967245;28;20176;-68
2022/03/08 08:46:51;;;;;;;6.97;6.37;;;;;;;14.74;28.11;102280.94;5001489;28;20171;-70
2022/03/08 08:49:17;;;;;;;7.73;6.87;;;;;;;15.79;26.88;102266.72;5001746;28;20878;-69
2022/03/08 08:51:42;;;;;;;7.50;6.70;;;;;;;15.03;27.58;102280.53;5001161;28;20549;-71
2022/03/08 08:54:07;;;;;;;8.77;7.27;;;;;;;16.90;25.64;102271.41;5001050;28;20581;-70
2022/03/08 08:56:35;;;;;;;7.90;6.97;;;;;;;16.54;25.86;102264.94;5001887;28;20506;-70
2022/03/08 08:59:02;;;;;;;7.73;7.03;;;;;;;16.35;26.25;102272.63;5001056;28;20174;-69
2022/03/08 09:01:28;;;;;;;8.03;7.23;;;;;;;16.82;25.41;102279.22;4999009;28;20477;-71
2022/03/08 09:03:53;;;;;;;8.03;6.97;;;;;;;16.51;26.04;102271.03;4984170;28;20756;-68
2022/03/08 09:06:19;;;;;;;9.90;6.37;;;;;;;17.14;25.20;102266.31;5000748;28;20591;-71
2022/03/08 09:08:44;;;;;;;7.63;6.60;;;;;;;17.26;24.71;102265.50;5000590;28;20226;-70
2022/03/08 09:11:11;;;;;;;9.73;6.63;;;;;;;17.89;24.32;102261.41;4988448;28;20420;-69
2022/03/08 09:13:37;;;;;;;7.27;5.83;;;;;;;16.83;25.04;102255.53;4981273;28;20471;-70
2022/03/08 09:16:02;;;;;;;7.90;7.10;;;;;;;16.81;25.76;102259.88;4981198;28;20424;-70
2022/03/08 09:18:27;;;;;;;11.70;7.50;;;;;;;17.69;24.36;102249.03;4981352;28;20220;-70
2022/03/08 09:20:53;;;;;;;8.60;7.23;;;;;;;16.95;25.43;102269.69;4981370;28;20191;-68
2022/03/08 09:23:19;;;;;;;8.40;6.93;;;;;;;17.87;24.19;102250.00;4977206;28;20207;-70
2022/03/08 09:25:44;;;;;;;10.03;6.83;;;;;;;16.95;25.25;102256.50;5001158;28;20167;-70
2022/03/08 09:28:10;;;;;;;10.73;7.00;;;;;;;18.10;24.18;102258.88;4981555;28;20207;-70
2022/03/08 09:30:36;;;;;;;7.67;6.93;;;;;;;17.57;24.44;102254.25;4998617;28;20199;-70
2022/03/08 09:33:03;;;;;;;8.53;6.67;;;;;;;18.33;23.91;102253.66;4981625;28;20194;-72
2022/03/08 09:35:28;;;;;;;8.13;6.30;;;;;;;18.20;23.91;102251.88;4981007;28;20468;-70
2022/03/08 09:37:54;;;;;;;7.30;6.60;;;;;;;17.44;24.86;102248.94;4993136;28;20438;-69
2022/03/08 09:40:20;;;;;;;9.53;6.43;;;;;;;17.55;24.47;102245.44;4981181;28;20421;-70
2022/03/08 09:42:48;;;;;;;7.63;6.87;;;;;;;18.07;24.01;102244.81;4980902;28;20431;-70
2022/03/08 09:45:14;;;;;;;6.80;6.20;;;;;;;17.35;24.89;102248.88;4963630;28;20484;-70
2022/03/08 09:47:40;;;;;;;12.43;7.37;;;;;;;17.75;24.68;102238.53;4980509;28;20416;-71
2022/03/08 09:50:06;;;;;;;8.27;6.87;;;;;;;16.15;26.26;102241.72;4982502;28;20532;-71
2022/03/08 09:52:37;;;;;;;6.87;6.27;;;;;;;17.69;24.31;102233.22;4981805;28;20253;-69
2022/03/08 09:55:03;;;;;;;8.40;6.50;;;;;;;16.80;25.77;102242.31;5000215;28;20470;-71
2022/03/08 09:57:28;;;;;;;14.30;6.50;;;;;;;16.31;25.93;102236.63;4998473;28;20744;-71
2022/03/08 09:59:54;;;;;;;6.80;6.20;;;;;;;17.51;24.66;102220.84;4999614;28;20426;-70
2022/03/08 10:02:22;;;;;;;5.90;5.30;;;;;;;18.99;22.97;102228.16;4999628;28;20170;-71
2022/03/08 10:05:01;;;;;;;6.47;5.83;;;;;;;17.57;24.50;102227.91;4999291;28;20202;-72
2022/03/08 10:07:26;;;;;;;7.43;5.80;;;;;;;17.71;24.16;102228.84;4999327;28;20462;-71
2022/03/08 10:09:58;;;;;;;7.13;6.33;;;;;;;17.94;23.83;102230.69;4982823;28;20658;-72
2022/03/08 10:12:26;;;;;;;5.90;5.30;;;;;;;17.61;24.03;102224.41;4998651;28;20219;-69
2022/03/08 10:14:52;;;;;;;6.37;5.73;;;;;;;17.03;24.65;102230.22;4996252;28;20494;-71
2022/03/08 10:17:37;;;;;;;7.70;6.07;;;;;;;16.68;25.09;102229.06;4998269;28;20512;-72
2022/03/08 10:20:04;;;;;;;7.20;6.47;;;;;;;17.63;24.26;102223.53;4981782;28;20194;-69
2022/03/08 10:22:37;;;;;;;7.03;6.00;;;;;;;18.30;23.56;102223.72;4999459;28;20415;-70
2022/03/08 10:25:16;;;;;;;6.53;6.03;;;;;;;18.35;23.04;102220.22;4999061;28;20443;-69
2022/03/08 10:28:01;;;;;;;7.33;6.03;;;;;;;18.42;23.31;102215.81;4984379;28;20431;-71
2022/03/08 10:30:26;;;;;;;6.30;5.70;;;;;;;16.37;25.00;102225.28;4980064;28;20435;-70
2022/03/08 10:32:56;;;;;;;6.30;5.80;;;;;;;15.73;26.75;102224.56;4997756;28;20446;-69
2022/03/08 10:35:22;;;;;;;6.80;6.00;;;;;;;14.99;26.83;102223.56;4998305;28;20584;-69
2022/03/08 10:37:48;;;;;;;9.83;5.60;;;;;;;17.56;24.21;102226.13;4979503;28;20522;-71
2022/03/08 10:40:22;;;;;;;13.80;6.17;;;;;;;15.98;25.43;102235.41;4991045;28;20824;-70
2022/03/08 10:42:58;;;;;;;6.30;5.70;;;;;;;14.08;27.96;102241.22;4999251;28;20171;-71
2022/03/08 10:45:26;;;;;;;4.90;4.50;;;;;;;16.16;25.17;102227.69;4999094;28;20429;-70
2022/03/08 10:47:54;;;;;;;7.53;5.20;;;;;;;15.54;26.37;102219.94;4981897;28;20691;-70
2022/03/08 10:50:23;;;;;;;5.63;5.13;;;;;;;16.58;25.10;102222.84;4999065;28;20419;-70
2022/03/08 10:52:50;;;;;;;5.50;5.00;;;;;;;16.19;24.84;102220.72;4982309;28;20820;-70
2022/03/08 10:55:17;;;;;;;5.30;4.80;;;;;;;16.32;24.95;102226.13;4999099;28;20871;-70
2022/03/08 10:57:58;;;;;;;5.30;4.80;;;;;;;16.58;24.66;102221.97;4998720;28;20431;-70
2022/03/08 11:00:37;;;;;;;5.67;5.03;;;;;;;17.28;23.88;102218.09;4998809;28;20434;-68
2022/03/08 11:03:05;;;;;;;5.43;4.93;;;;;;;16.95;24.30;102212.63;4998847;28;20407;-70
2022/03/08 11:05:36;;;;;;;5.73;5.10;;;;;;;16.88;24.06;102209.91;4998561;28;20437;-70
2022/03/08 11:08:02;;;;;;;5.90;5.20;;;;;;;17.16;23.64;102211.00;4998555;28;20463;-70
2022/03/08 11:10:28;;;;;;;6.93;5.47;;;;;;;14.36;26.63;102218.13;4999282;28;20425;-71
2022/03/08 11:12:54;;;;;;;4.60;4.20;;;;;;;18.78;34.66;102199.94;4981945;28;20175;-53
2022/03/08 11:15:21;;;;;;;7.93;4.60;;;;;;;20.23;28.02;102185.28;4998735;28;20561;-53
2022/03/08 11:17:49;;;;;;;7.27;4.20;;;;;;;18.31;22.61;102207.03;4998897;28;20418;-68
2022/03/08 11:20:17;;;;;;;4.97;4.47;;;;;;;14.50;26.77;102207.88;4998479;28;20418;-68